sensor_id;sensor_type;location;lat;lon;timestamp;pressure;altitude;pressure_sealevel;temperature;humidity
64602;BME280;68371;42.630;23.192;2023-07-29T00:00:02;92321.22;;;16.54;69.87
64602;BME280;68371;42.630;23.192;2023-07-29T00:02:29;92316.31;;;16.56;70.28
64602;BME280;68371;42.630;23.192;2023-07-29T00:04:58;92324.25;;;16.56;70.26
64602;BME280;68371;42.630;23.192;2023-07-29T00:07:24;92322.38;;;16.60;69.97
64602;BME280;68371;42.630;23.192;2023-07-29T00:09:53;92318.97;;;16.56;70.24
64602;BME280;68371;42.630;23.192;2023-07-29T00:12:19;92320.09;;;16.55;70.21
64602;BME280;68371;42.630;23.192;2023-07-29T00:14:46;92318.56;;;16.54;70.51
64602;BME280;68371;42.630;23.192;2023-07-29T00:17:13;92311.38;;;16.51;70.52
64602;BME280;68371;42.630;23.192;2023-07-29T00:19:40;92315.53;;;16.45;70.67
64602;BME280;68371;42.630;23.192;2023-07-29T00:22:07;92311.72;;;16.39;70.52
64602;BME280;68371;42.630;23.192;2023-07-29T00:24:34;92312.44;;;16.36;70.94
64602;BME280;68371;42.630;23.192;2023-07-29T00:27:02;92278.34;;;16.20;70.99
64602;BME280;68371;42.630;23.192;2023-07-29T00:29:28;92301.13;;;16.39;71.37
64602;BME280;68371;42.630;23.192;2023-07-29T00:31:55;92307.53;;;16.34;70.94
64602;BME280;68371;42.630;23.192;2023-07-29T00:34:23;92300.31;;;16.31;71.41
64602;BME280;68371;42.630;23.192;2023-07-29T00:36:50;92300.31;;;16.31;71.50
64602;BME280;68371;42.630;23.192;2023-07-29T00:39:17;92298.78;;;16.27;71.67
64602;BME280;68371;42.630;23.192;2023-07-29T00:41:44;92302.53;;;16.18;72.13
64602;BME280;68371;42.630;23.192;2023-07-29T00:44:12;92299.91;;;16.22;71.76
64602;BME280;68371;42.630;23.192;2023-07-29T00:46:41;92247.50;;;15.79;71.72
64602;BME280;68371;42.630;23.192;2023-07-29T00:49:08;92298.72;;;16.09;72.46
64602;BME280;68371;42.630;23.192;2023-07-29T00:51:34;92300.97;;;16.07;71.98
64602;BME280;68371;42.630;23.192;2023-07-29T00:54:02;92297.16;;;16.00;72.32
64602;BME280;68371;42.630;23.192;2023-07-29T00:56:29;92304.34;;;16.00;72.56
64602;BME280;68371;42.630;23.192;2023-07-29T00:58:55;92299.41;;;15.98;72.66
64602;BME280;68371;42.630;23.192;2023-07-29T01:01:26;92299.75;;;15.93;72.85
64602;BME280;68371;42.630;23.192;2023-07-29T01:03:53;92291.03;;;15.89;73.20
64602;BME280;68371;42.630;23.192;2023-07-29T01:06:25;92297.84;;;15.90;72.99
64602;BME280;68371;42.630;23.192;2023-07-29T01:08:59;92295.56;;;15.81;73.92
64602;BME280;68371;42.630;23.192;2023-07-29T01:11:35;92293.25;;;15.76;74.20
64602;BME280;68371;42.630;23.192;2023-07-29T01:14:14;92291.69;;;15.72;73.91
64602;BME280;68371;42.630;23.192;2023-07-29T01:16:51;92292.13;;;15.77;73.88
64602;BME280;68371;42.630;23.192;2023-07-29T01:19:29;92291.31;;;15.73;73.88
64602;BME280;68371;42.630;23.192;2023-07-29T01:22:04;92297.69;;;15.69;74.40
64602;BME280;68371;42.630;23.192;2023-07-29T01:24:33;92284.06;;;15.67;74.01
64602;BME280;68371;42.630;23.192;2023-07-29T01:27:00;92285.59;;;15.68;74.23
64602;BME280;68371;42.630;23.192;2023-07-29T01:29:29;92288.25;;;15.68;74.32
64602;BME280;68371;42.630;23.192;2023-07-29T01:31:57;92287.47;;;15.63;73.90
64602;BME280;68371;42.630;23.192;2023-07-29T01:34:30;92298.06;;;15.67;74.31
64602;BME280;68371;42.630;23.192;2023-07-29T01:36:59;92295.72;;;15.55;74.92
64602;BME280;68371;42.630;23.192;2023-07-29T01:39:29;92297.19;;;15.49;74.96
64602;BME280;68371;42.630;23.192;2023-07-29T01:42:00;92292.66;;;15.53;74.56
64602;BME280;68371;42.630;23.192;2023-07-29T01:44:27;92288.84;;;15.47;75.29
64602;BME280;68371;42.630;23.192;2023-07-29T01:46:55;92290.03;;;15.53;75.36
64602;BME280;68371;42.630;23.192;2023-07-29T01:49:21;92290.03;;;15.53;75.04
64602;BME280;68371;42.630;23.192;2023-07-29T01:51:48;92290.75;;;15.46;75.10
64602;BME280;68371;42.630;23.192;2023-07-29T01:54:15;92298.69;;;15.46;75.42
64602;BME280;68371;42.630;23.192;2023-07-29T01:56:42;92295.25;;;15.42;75.15
64602;BME280;68371;42.630;23.192;2023-07-29T01:59:10;92291.47;;;15.39;75.63
64602;BME280;68371;42.630;23.192;2023-07-29T02:01:38;92292.94;;;15.33;75.45
64602;BME280;68371;42.630;23.192;2023-07-29T02:04:05;92292.97;;;15.37;75.63
64602;BME280;68371;42.630;23.192;2023-07-29T02:06:32;92297.88;;;15.38;75.92
64602;BME280;68371;42.630;23.192;2023-07-29T02:08:58;92292.16;;;15.33;75.84
64602;BME280;68371;42.630;23.192;2023-07-29T02:11:25;92293.69;;;15.34;75.99
64602;BME280;68371;42.630;23.192;2023-07-29T02:13:53;92297.78;;;15.28;75.86
64602;BME280;68371;42.630;23.192;2023-07-29T02:16:21;92297.41;;;15.26;76.24
64602;BME280;68371;42.630;23.192;2023-07-29T02:18:49;92289.81;;;15.24;76.30
64602;BME280;68371;42.630;23.192;2023-07-29T02:21:16;92299.28;;;15.25;76.24
64602;BME280;68371;42.630;23.192;2023-07-29T02:23:43;92298.91;;;15.23;76.01
64602;BME280;68371;42.630;23.192;2023-07-29T02:26:09;92292.81;;;15.22;75.84
64602;BME280;68371;42.630;23.192;2023-07-29T02:28:36;92298.84;;;15.19;76.15
64602;BME280;68371;42.630;23.192;2023-07-29T02:31:11;92300.38;;;15.20;76.87
64602;BME280;68371;42.630;23.192;2023-07-29T02:33:40;92291.25;;;15.14;76.29
64602;BME280;68371;42.630;23.192;2023-07-29T02:36:07;92287.09;;;15.13;76.44
64602;BME280;68371;42.630;23.192;2023-07-29T02:38:34;92288.16;;;15.05;76.53
64602;BME280;68371;42.630;23.192;2023-07-29T02:41:01;92294.19;;;15.06;76.74
64602;BME280;68371;42.630;23.192;2023-07-29T02:43:27;92294.94;;;15.02;77.04
64602;BME280;68371;42.630;23.192;2023-07-29T02:45:54;92283.22;;;15.03;76.81
64602;BME280;68371;42.630;23.192;2023-07-29T02:48:21;92283.94;;;14.97;76.96
64602;BME280;68371;42.630;23.192;2023-07-29T02:50:49;92287.69;;;14.92;77.10
64602;BME280;68371;42.630;23.192;2023-07-29T02:53:15;92297.47;;;14.92;77.08
64602;BME280;68371;42.630;23.192;2023-07-29T02:55:42;92297.47;;;14.88;77.36
64602;BME280;68371;42.630;23.192;2023-07-29T02:58:09;92296.69;;;14.88;77.67
64602;BME280;68371;42.630;23.192;2023-07-29T03:00:35;92297.47;;;14.88;77.47
64602;BME280;68371;42.630;23.192;2023-07-29T03:03:02;92302.75;;;14.88;77.75
64602;BME280;68371;42.630;23.192;2023-07-29T03:05:29;92304.97;;;14.86;77.91
64602;BME280;68371;42.630;23.192;2023-07-29T03:07:57;92305.72;;;14.83;77.72
64602;BME280;68371;42.630;23.192;2023-07-29T03:10:24;92306.16;;;14.89;78.07
64602;BME280;68371;42.630;23.192;2023-07-29T03:12:52;92311.81;;;14.87;77.72
64602;BME280;68371;42.630;23.192;2023-07-29T03:15:23;92306.06;;;14.81;78.24
64602;BME280;68371;42.630;23.192;2023-07-29T03:17:49;92312.38;;;14.70;78.62
64602;BME280;68371;42.630;23.192;2023-07-29T03:20:16;92307.88;;;14.70;78.08
64602;BME280;68371;42.630;23.192;2023-07-29T03:22:44;92308.97;;;14.69;78.52
64602;BME280;68371;42.630;23.192;2023-07-29T03:25:13;92285.75;;;14.55;78.63
64602;BME280;68371;42.630;23.192;2023-07-29T03:27:40;92309.78;;;14.73;78.76
64602;BME280;68371;42.630;23.192;2023-07-29T03:30:07;92305.22;;;14.74;78.74
64602;BME280;68371;42.630;23.192;2023-07-29T03:32:34;92310.13;;;14.72;78.58
64602;BME280;68371;42.630;23.192;2023-07-29T03:35:01;92304.09;;;14.71;78.50
64602;BME280;68371;42.630;23.192;2023-07-29T03:37:27;92301.78;;;14.70;78.81
64602;BME280;68371;42.630;23.192;2023-07-29T03:39:54;92300.69;;;14.71;79.29
64602;BME280;68371;42.630;23.192;2023-07-29T03:42:22;92293.91;;;14.73;78.82
64602;BME280;68371;42.630;23.192;2023-07-29T03:44:49;92289.72;;;14.69;78.96
64602;BME280;68371;42.630;23.192;2023-07-29T03:47:15;92286.31;;;14.68;79.39
64602;BME280;68371;42.630;23.192;2023-07-29T03:49:42;92292.41;;;14.72;79.71
64602;BME280;68371;42.630;23.192;2023-07-29T03:52:09;92294.59;;;14.67;80.03
64602;BME280;68371;42.630;23.192;2023-07-29T03:54:36;92297.25;;;14.67;80.15
64602;BME280;68371;42.630;23.192;2023-07-29T03:57:03;92299.94;;;14.70;79.87
64602;BME280;68371;42.630;23.192;2023-07-29T03:59:31;92299.16;;;14.70;80.04
64602;BME280;68371;42.630;23.192;2023-07-29T04:01:58;92298.75;;;14.68;79.98
64602;BME280;68371;42.630;23.192;2023-07-29T04:04:25;92296.91;;;14.68;80.20
64602;BME280;68371;42.630;23.192;2023-07-29T04:06:52;92302.56;;;14.70;80.62
64602;BME280;68371;42.630;23.192;2023-07-29T04:09:18;92298.47;;;14.76;80.16
64602;BME280;68371;42.630;23.192;2023-07-29T04:11:45;92302.63;;;14.77;80.13
64602;BME280;68371;42.630;23.192;2023-07-29T04:14:12;92300.72;;;14.74;80.48
64602;BME280;68371;42.630;23.192;2023-07-29T04:16:40;92292.78;;;14.74;80.90
64602;BME280;68371;42.630;23.192;2023-07-29T04:19:07;92299.59;;;14.75;80.89
64602;BME280;68371;42.630;23.192;2023-07-29T04:21:33;92301.13;;;14.80;81.03
64602;BME280;68371;42.630;23.192;2023-07-29T04:24:00;92300.44;;;14.83;81.67
64602;BME280;68371;42.630;23.192;2023-07-29T04:26:27;92305.34;;;14.85;82.08
64602;BME280;68371;42.630;23.192;2023-07-29T04:28:53;92300.50;;;14.90;82.48
64602;BME280;68371;42.630;23.192;2023-07-29T04:31:20;92302.44;;;14.97;82.54
64602;BME280;68371;42.630;23.192;2023-07-29T04:33:48;92306.28;;;15.03;82.70
64602;BME280;68371;42.630;23.192;2023-07-29T04:36:15;92302.53;;;15.08;82.43
64602;BME280;68371;42.630;23.192;2023-07-29T04:38:42;92305.66;;;15.17;82.46
64602;BME280;68371;42.630;23.192;2023-07-29T04:41:08;92309.09;;;15.21;82.71
64602;BME280;68371;42.630;23.192;2023-07-29T04:43:36;92309.50;;;15.27;82.81
64602;BME280;68371;42.630;23.192;2023-07-29T04:46:06;92311.78;;;15.28;83.14
64602;BME280;68371;42.630;23.192;2023-07-29T04:48:33;92314.88;;;15.37;83.24
64602;BME280;68371;42.630;23.192;2023-07-29T04:51:01;92309.63;;;15.45;83.52
64602;BME280;68371;42.630;23.192;2023-07-29T04:53:27;92310.41;;;15.49;83.82
64602;BME280;68371;42.630;23.192;2023-07-29T04:55:54;92314.25;;;15.55;84.27
64602;BME280;68371;42.630;23.192;2023-07-29T04:58:21;92319.97;;;15.60;84.02
64602;BME280;68371;42.630;23.192;2023-07-29T05:00:47;92319.63;;;15.69;83.95
64602;BME280;68371;42.630;23.192;2023-07-29T05:03:14;92329.94;;;15.78;83.46
64602;BME280;68371;42.630;23.192;2023-07-29T05:05:41;92323.94;;;15.85;83.13
64602;BME280;68371;42.630;23.192;2023-07-29T05:08:09;92325.84;;;15.91;83.32
64602;BME280;68371;42.630;23.192;2023-07-29T05:10:36;92321.38;;;16.02;82.97
64602;BME280;68371;42.630;23.192;2023-07-29T05:13:02;92327.50;;;16.10;83.80
64602;BME280;68371;42.630;23.192;2023-07-29T05:15:29;92330.56;;;16.23;83.25
64602;BME280;68371;42.630;23.192;2023-07-29T05:17:56;92331.75;;;16.29;82.19
64602;BME280;68371;42.630;23.192;2023-07-29T05:20:23;92335.56;;;16.39;81.18
64602;BME280;68371;42.630;23.192;2023-07-29T05:22:49;92331.44;;;16.49;79.15
64602;BME280;68371;42.630;23.192;2023-07-29T05:25:18;92333.00;;;16.57;79.61
64602;BME280;68371;42.630;23.192;2023-07-29T05:27:45;92332.28;;;16.71;77.92
64602;BME280;68371;42.630;23.192;2023-07-29T05:30:12;92336.09;;;16.80;79.25
64602;BME280;68371;42.630;23.192;2023-07-29T05:32:38;92333.50;;;16.91;78.00
64602;BME280;68371;42.630;23.192;2023-07-29T05:35:06;92337.28;;;17.01;77.90
64602;BME280;68371;42.630;23.192;2023-07-29T05:37:33;92340.75;;;17.12;78.13
64602;BME280;68371;42.630;23.192;2023-07-29T05:40:00;92337.72;;;17.21;77.30
64602;BME280;68371;42.630;23.192;2023-07-29T05:42:28;92335.84;;;17.32;74.54
64602;BME280;68371;42.630;23.192;2023-07-29T05:44:54;92327.47;;;17.37;75.00
64602;BME280;68371;42.630;23.192;2023-07-29T05:47:21;92332.41;;;17.53;73.49
64602;BME280;68371;42.630;23.192;2023-07-29T05:49:48;92341.16;;;17.68;72.39
64602;BME280;68371;42.630;23.192;2023-07-29T05:52:15;92336.56;;;17.76;70.32
64602;BME280;68371;42.630;23.192;2023-07-29T05:54:42;92334.34;;;17.89;71.05
64602;BME280;68371;42.630;23.192;2023-07-29T05:57:09;92339.25;;;18.05;69.80
64602;BME280;68371;42.630;23.192;2023-07-29T05:59:38;92342.25;;;18.14;71.20
64602;BME280;68371;42.630;23.192;2023-07-29T06:02:05;92345.28;;;18.23;71.95
64602;BME280;68371;42.630;23.192;2023-07-29T06:04:32;92339.19;;;18.33;71.85
64602;BME280;68371;42.630;23.192;2023-07-29T06:06:59;92334.97;;;18.43;71.07
64602;BME280;68371;42.630;23.192;2023-07-29T06:09:25;92340.25;;;18.54;71.59
64602;BME280;68371;42.630;23.192;2023-07-29T06:11:52;92336.72;;;18.71;70.95
64602;BME280;68371;42.630;23.192;2023-07-29T06:14:19;92346.22;;;18.79;70.41
64602;BME280;68371;42.630;23.192;2023-07-29T06:16:47;92341.25;;;18.89;70.25
64602;BME280;68371;42.630;23.192;2023-07-29T06:19:14;92334.72;;;19.04;69.50
64602;BME280;68371;42.630;23.192;2023-07-29T06:21:40;92334.59;;;19.22;70.31
64602;BME280;68371;42.630;23.192;2023-07-29T06:24:07;92332.63;;;19.33;69.11
64602;BME280;68371;42.630;23.192;2023-07-29T06:26:34;92331.06;;;19.39;67.71
64602;BME280;68371;42.630;23.192;2023-07-29T06:29:00;92322.53;;;19.59;68.01
64602;BME280;68371;42.630;23.192;2023-07-29T06:31:27;92319.03;;;19.73;67.74
64602;BME280;68371;42.630;23.192;2023-07-29T06:33:56;92316.63;;;19.86;67.15
64602;BME280;68371;42.630;23.192;2023-07-29T06:36:22;92312.72;;;19.97;65.78
64602;BME280;68371;42.630;23.192;2023-07-29T06:38:49;92316.00;;;20.12;63.76
64602;BME280;68371;42.630;23.192;2023-07-29T06:41:16;92312.44;;;20.26;62.15
64602;BME280;68371;42.630;23.192;2023-07-29T06:43:43;92304.66;;;20.39;61.96
64602;BME280;68371;42.630;23.192;2023-07-29T06:46:10;92312.50;;;20.53;61.79
64602;BME280;68371;42.630;23.192;2023-07-29T06:48:36;92316.25;;;20.59;61.12
64602;BME280;68371;42.630;23.192;2023-07-29T06:51:04;92316.16;;;20.70;60.96
64602;BME280;68371;42.630;23.192;2023-07-29T06:53:31;92319.03;;;20.83;59.94
64602;BME280;68371;42.630;23.192;2023-07-29T06:55:58;92313.84;;;20.99;59.62
64602;BME280;68371;42.630;23.192;2023-07-29T06:58:25;92325.94;;;21.08;59.24
64602;BME280;68371;42.630;23.192;2023-07-29T07:00:52;92329.63;;;21.17;59.31
64602;BME280;68371;42.630;23.192;2023-07-29T07:03:18;92324.47;;;21.30;58.87
64602;BME280;68371;42.630;23.192;2023-07-29T07:05:45;92325.84;;;21.42;58.49
64602;BME280;68371;42.630;23.192;2023-07-29T07:08:13;92324.19;;;21.52;59.13
64602;BME280;68371;42.630;23.192;2023-07-29T07:10:40;92319.44;;;21.63;59.29
64602;BME280;68371;42.630;23.192;2023-07-29T07:13:06;92320.03;;;21.74;59.29
64602;BME280;68371;42.630;23.192;2023-07-29T07:15:33;92307.22;;;21.86;58.66
64602;BME280;68371;42.630;23.192;2023-07-29T07:17:59;92314.78;;;21.91;58.82
64602;BME280;68371;42.630;23.192;2023-07-29T07:20:26;92317.63;;;22.04;57.95
64602;BME280;68371;42.630;23.192;2023-07-29T07:22:53;92318.59;;;22.13;57.91
64602;BME280;68371;42.630;23.192;2023-07-29T07:25:21;92317.72;;;22.20;57.06
64602;BME280;68371;42.630;23.192;2023-07-29T07:27:48;92309.13;;;22.32;57.40
64602;BME280;68371;42.630;23.192;2023-07-29T07:30:15;92318.38;;;22.48;57.67
64602;BME280;68371;42.630;23.192;2023-07-29T07:32:41;92320.84;;;22.58;57.23
64602;BME280;68371;42.630;23.192;2023-07-29T07:35:08;92312.28;;;22.67;55.26
64602;BME280;68371;42.630;23.192;2023-07-29T07:37:35;92316.03;;;22.70;55.42
64602;BME280;68371;42.630;23.192;2023-07-29T07:40:01;92312.06;;;22.78;54.10
64602;BME280;68371;42.630;23.192;2023-07-29T07:42:30;92310.81;;;22.83;54.46
64602;BME280;68371;42.630;23.192;2023-07-29T07:44:57;92311.81;;;22.89;55.08
64602;BME280;68371;42.630;23.192;2023-07-29T07:47:23;92312.00;;;23.02;54.62
64602;BME280;68371;42.630;23.192;2023-07-29T07:49:51;92314.16;;;23.07;53.30
64602;BME280;68371;42.630;23.192;2023-07-29T07:52:18;92307.66;;;23.08;52.99
64602;BME280;68371;42.630;23.192;2023-07-29T07:54:45;92305.66;;;23.12;52.43
64602;BME280;68371;42.630;23.192;2023-07-29T07:57:11;92307.81;;;23.17;51.11
64602;BME280;68371;42.630;23.192;2023-07-29T07:59:39;92316.22;;;23.35;51.80
64602;BME280;68371;42.630;23.192;2023-07-29T08:02:06;92310.19;;;23.48;52.45
64602;BME280;68371;42.630;23.192;2023-07-29T08:04:33;92312.38;;;23.53;49.87
64602;BME280;68371;42.630;23.192;2023-07-29T08:06:59;92315.22;;;23.62;48.74
64602;BME280;68371;42.630;23.192;2023-07-29T08:09:26;92311.69;;;23.65;48.46
64602;BME280;68371;42.630;23.192;2023-07-29T08:11:53;92310.34;;;23.73;47.83
64602;BME280;68371;42.630;23.192;2023-07-29T08:14:19;92313.66;;;23.81;46.22
64602;BME280;68371;42.630;23.192;2023-07-29T08:16:48;92316.81;;;23.92;46.83
64602;BME280;68371;42.630;23.192;2023-07-29T08:19:15;92323.44;;;24.04;46.31
64602;BME280;68371;42.630;23.192;2023-07-29T08:21:41;92322.94;;;24.09;47.04
64602;BME280;68371;42.630;23.192;2023-07-29T08:24:08;92331.44;;;24.20;45.02
64602;BME280;68371;42.630;23.192;2023-07-29T08:26:35;92336.72;;;24.24;45.67
64602;BME280;68371;42.630;23.192;2023-07-29T08:29:01;92328.00;;;24.20;46.49
64602;BME280;68371;42.630;23.192;2023-07-29T08:31:28;92333.34;;;24.36;45.98
64602;BME280;68371;42.630;23.192;2023-07-29T08:34:00;92324.72;;;24.29;44.34
64602;BME280;68371;42.630;23.192;2023-07-29T08:36:26;92333.44;;;24.33;43.33
64602;BME280;68371;42.630;23.192;2023-07-29T08:38:53;92327.78;;;24.44;42.92
64602;BME280;68371;42.630;23.192;2023-07-29T08:41:25;92333.91;;;24.44;44.75
64602;BME280;68371;42.630;23.192;2023-07-29T08:46:39;92329.81;;;24.69;43.78
64602;BME280;68371;42.630;23.192;2023-07-29T08:49:07;92316.63;;;24.74;43.57
64602;BME280;68371;42.630;23.192;2023-07-29T08:51:35;92319.66;;;24.76;44.04
64602;BME280;68371;42.630;23.192;2023-07-29T08:54:02;92315.13;;;24.73;42.26
64602;BME280;68371;42.630;23.192;2023-07-29T08:56:30;92319.09;;;24.82;42.45
64602;BME280;68371;42.630;23.192;2023-07-29T08:58:57;92317.84;;;24.86;43.14
64602;BME280;68371;42.630;23.192;2023-07-29T09:01:25;92316.13;;;24.92;42.46
64602;BME280;68371;42.630;23.192;2023-07-29T09:03:52;92313.44;;;24.92;40.95
64602;BME280;68371;42.630;23.192;2023-07-29T09:06:21;92320.22;;;24.97;41.94
64602;BME280;68371;42.630;23.192;2023-07-29T09:08:49;92319.25;;;25.04;42.80
64602;BME280;68371;42.630;23.192;2023-07-29T09:11:18;92268.19;;;24.91;40.86
64602;BME280;68371;42.630;23.192;2023-07-29T09:13:46;92301.22;;;25.17;41.69
64602;BME280;68371;42.630;23.192;2023-07-29T09:16:14;92304.97;;;25.19;41.56
64602;BME280;68371;42.630;23.192;2023-07-29T09:18:41;92300.06;;;25.31;42.25
64602;BME280;68371;42.630;23.192;2023-07-29T09:21:07;92299.41;;;25.39;40.59
64602;BME280;68371;42.630;23.192;2023-07-29T09:23:40;92294.56;;;25.47;40.34
64602;BME280;68371;42.630;23.192;2023-07-29T09:26:08;92300.81;;;25.57;41.41
64602;BME280;68371;42.630;23.192;2023-07-29T09:28:36;92307.13;;;25.63;39.82
64602;BME280;68371;42.630;23.192;2023-07-29T09:31:03;92299.72;;;25.67;39.33
64602;BME280;68371;42.630;23.192;2023-07-29T09:33:33;92308.28;;;25.75;38.61
64602;BME280;68371;42.630;23.192;2023-07-29T09:36:02;92296.75;;;26.00;40.51
64602;BME280;68371;42.630;23.192;2023-07-29T09:38:29;92292.22;;;26.10;38.81
64602;BME280;68371;42.630;23.192;2023-07-29T09:40:57;92293.03;;;26.19;38.93
64602;BME280;68371;42.630;23.192;2023-07-29T09:43:29;92282.97;;;26.33;39.73
64602;BME280;68371;42.630;23.192;2023-07-29T09:45:59;92283.28;;;26.35;38.08
64602;BME280;68371;42.630;23.192;2023-07-29T09:48:26;92284.84;;;26.45;37.49
64602;BME280;68371;42.630;23.192;2023-07-29T09:50:54;92286.19;;;26.63;38.38
64602;BME280;68371;42.630;23.192;2023-07-29T09:53:21;92287.88;;;26.69;37.72
64602;BME280;68371;42.630;23.192;2023-07-29T09:55:48;92274.91;;;26.77;37.66
64602;BME280;68371;42.630;23.192;2023-07-29T09:58:25;92276.56;;;26.84;36.54
64602;BME280;68371;42.630;23.192;2023-07-29T10:00:52;92278.75;;;26.98;37.57
64602;BME280;68371;42.630;23.192;2023-07-29T10:03:20;92274.91;;;27.08;36.26
64602;BME280;68371;42.630;23.192;2023-07-29T10:05:47;92276.94;;;27.26;36.39
64602;BME280;68371;42.630;23.192;2023-07-29T10:08:15;92269.47;;;27.30;35.05
64602;BME280;68371;42.630;23.192;2023-07-29T10:10:42;92268.13;;;27.35;34.85
64602;BME280;68371;42.630;23.192;2023-07-29T10:13:10;92262.34;;;27.46;37.58
64602;BME280;68371;42.630;23.192;2023-07-29T10:15:39;92261.94;;;27.75;37.43
64602;BME280;68371;42.630;23.192;2023-07-29T10:18:06;92267.94;;;27.79;35.31
64602;BME280;68371;42.630;23.192;2023-07-29T10:20:34;92264.38;;;27.82;35.10
64602;BME280;68371;42.630;23.192;2023-07-29T10:23:05;92253.59;;;27.91;36.00
64602;BME280;68371;42.630;23.192;2023-07-29T10:25:38;92246.09;;;27.95;37.07
64602;BME280;68371;42.630;23.192;2023-07-29T10:28:06;92251.34;;;28.17;35.81
64602;BME280;68371;42.630;23.192;2023-07-29T10:30:33;92252.09;;;28.18;33.71
64602;BME280;68371;42.630;23.192;2023-07-29T10:33:03;92251.38;;;28.27;34.50
64602;BME280;68371;42.630;23.192;2023-07-29T10:35:31;92244.28;;;28.48;35.69
64602;BME280;68371;42.630;23.192;2023-07-29T10:37:59;92226.28;;;28.54;33.31
64602;BME280;68371;42.630;23.192;2023-07-29T10:40:43;92244.28;;;28.66;33.82
64602;BME280;68371;42.630;23.192;2023-07-29T10:43:11;92246.78;;;28.79;33.52
64602;BME280;68371;42.630;23.192;2023-07-29T10:45:41;92246.03;;;28.79;32.46
64602;BME280;68371;42.630;23.192;2023-07-29T10:48:12;92239.84;;;28.87;33.15
64602;BME280;68371;42.630;23.192;2023-07-29T10:50:39;92231.72;;;29.06;33.35
64602;BME280;68371;42.630;23.192;2023-07-29T10:53:06;92236.47;;;29.20;34.37
64602;BME280;68371;42.630;23.192;2023-07-29T10:55:33;92233.72;;;29.29;31.60
64602;BME280;68371;42.630;23.192;2023-07-29T10:58:06;92225.44;;;29.33;31.77
64602;BME280;68371;42.630;23.192;2023-07-29T11:00:34;92227.75;;;29.49;31.56
64602;BME280;68371;42.630;23.192;2023-07-29T11:03:02;92229.50;;;29.62;32.54
64602;BME280;68371;42.630;23.192;2023-07-29T11:05:44;92226.97;;;29.82;31.37
64602;BME280;68371;42.630;23.192;2023-07-29T11:08:27;92224.97;;;29.92;30.60
64602;BME280;68371;42.630;23.192;2023-07-29T11:11:12;92225.84;;;30.13;28.97
64602;BME280;68371;42.630;23.192;2023-07-29T11:13:38;92214.06;;;30.01;28.16
64602;BME280;68371;42.630;23.192;2023-07-29T11:16:05;92222.44;;;30.27;29.61
64602;BME280;68371;42.630;23.192;2023-07-29T11:18:34;92219.44;;;30.25;30.63
64602;BME280;68371;42.630;23.192;2023-07-29T11:21:03;92224.25;;;30.45;27.94
64602;BME280;68371;42.630;23.192;2023-07-29T11:23:31;92220.34;;;30.61;29.05
64602;BME280;68371;42.630;23.192;2023-07-29T11:25:59;92221.94;;;30.83;29.32
64602;BME280;68371;42.630;23.192;2023-07-29T11:28:27;92222.84;;;31.09;28.68
64602;BME280;68371;42.630;23.192;2023-07-29T11:30:54;92224.75;;;31.39;27.76
64602;BME280;68371;42.630;23.192;2023-07-29T11:33:23;92210.63;;;31.34;28.21
64602;BME280;68371;42.630;23.192;2023-07-29T11:35:50;92224.47;;;31.51;27.47
64602;BME280;68371;42.630;23.192;2023-07-29T11:38:20;92214.78;;;31.65;27.53
64602;BME280;68371;42.630;23.192;2023-07-29T11:40:54;92214.78;;;31.86;25.64
64602;BME280;68371;42.630;23.192;2023-07-29T11:43:21;92218.34;;;32.12;26.73
64602;BME280;68371;42.630;23.192;2023-07-29T11:45:48;92204.97;;;32.35;25.43
64602;BME280;68371;42.630;23.192;2023-07-29T11:48:15;92208.63;;;32.52;24.12
64602;BME280;68371;42.630;23.192;2023-07-29T11:50:42;92209.00;;;32.66;26.10
64602;BME280;68371;42.630;23.192;2023-07-29T11:53:09;92209.78;;;32.72;26.78
64602;BME280;68371;42.630;23.192;2023-07-29T11:55:38;92203.09;;;32.99;25.34
64602;BME280;68371;42.630;23.192;2023-07-29T11:58:05;92205.91;;;33.10;24.90
64602;BME280;68371;42.630;23.192;2023-07-29T12:00:32;92205.91;;;33.10;25.19
64602;BME280;68371;42.630;23.192;2023-07-29T12:02:59;92200.56;;;33.22;24.92
64602;BME280;68371;42.630;23.192;2023-07-29T12:05:26;92191.53;;;33.42;24.50
64602;BME280;68371;42.630;23.192;2023-07-29T12:07:53;92198.00;;;33.50;23.63
64602;BME280;68371;42.630;23.192;2023-07-29T12:10:20;92194.69;;;33.72;24.45
64602;BME280;68371;42.630;23.192;2023-07-29T12:12:49;92191.06;;;33.98;24.01
64602;BME280;68371;42.630;23.192;2023-07-29T12:15:23;92187.47;;;34.35;23.72
64602;BME280;68371;42.630;23.192;2023-07-29T12:17:52;92185.31;;;34.67;23.86
64602;BME280;68371;42.630;23.192;2023-07-29T12:20:20;92183.06;;;34.94;23.27
64602;BME280;68371;42.630;23.192;2023-07-29T12:22:52;92179.09;;;34.83;21.52
64602;BME280;68371;42.630;23.192;2023-07-29T12:25:19;92179.13;;;35.00;22.88
64602;BME280;68371;42.630;23.192;2023-07-29T12:27:46;92191.75;;;35.15;22.47
64602;BME280;68371;42.630;23.192;2023-07-29T12:30:15;92180.88;;;35.20;22.89
64602;BME280;68371;42.630;23.192;2023-07-29T12:32:45;92180.84;;;35.31;22.09
64602;BME280;68371;42.630;23.192;2023-07-29T12:35:12;92187.00;;;35.66;22.36
64602;BME280;68371;42.630;23.192;2023-07-29T12:37:39;92186.38;;;35.96;21.16
64602;BME280;68371;42.630;23.192;2023-07-29T12:40:20;92187.50;;;36.28;21.60
64602;BME280;68371;42.630;23.192;2023-07-29T12:42:47;92174.72;;;36.48;20.40
64602;BME280;68371;42.630;23.192;2023-07-29T12:45:16;92189.47;;;36.75;20.58
64602;BME280;68371;42.630;23.192;2023-07-29T12:47:44;92184.88;;;36.89;19.75
64602;BME280;68371;42.630;23.192;2023-07-29T12:50:10;92179.03;;;37.04;19.22
64602;BME280;68371;42.630;23.192;2023-07-29T12:52:37;92181.13;;;37.22;19.31
64602;BME280;68371;42.630;23.192;2023-07-29T12:55:05;92188.63;;;37.22;19.65